Capitol Logistics 204




KBWI
Baltimore/Washington International Airport
Baltimore, Maryland
EDDK
Cologne Bonn Airport
Cologne,

Route Details

Aircraft Information
Group: Trans-Atlantic Ops
Types: A31F,B744,B763,MD11
Route Data
Demand: H
Distance: 3434nm
Duration: 8h 00m
Recm'd Route: OOD J42 RBV LLUND BAYYS PUT EBONY N381B ALLRY NATV GISTI MORAG Q60 UGNUS L18 GAVGO UL9 KONAN UL607 REMBA UL607 SPI T857 DENOV T861 ERUKI T856 DEPOK
Origin Wx: KBWI 271954Z 19008G14KT 10SM FEW012 SCT019 BKN140 OVC250 22/19 A2982 RMK AO2 SLP095 T02220194
Dest. Wx: EDDK 272050Z AUTO 32010KT CAVOK 12/04 Q1023 NOSIG
Notes:

Financial History
Total Freight: 153,616lbs
Average Load: 76,808lbs/flt
Fuel Used: 158,627lbs
Avg. Fuel Used: 79,314lbs/flt
Fuel Expense: $48,471
Avg. Fuel Expense: $24,236
Avg. Fuel Cost: $0.31/lbs
Total Gross Income: $313,530
Pilot Pay: $498
Total Expenses: $42,451
Total Revenue: $219,163
Average Revenue: $156,765.13